createdAt,value
2023-05-17T00:00:35.946Z,95052.00
2023-05-17T00:01:35.965Z,95054.00
2023-05-17T00:02:36.212Z,95054.00
2023-05-17T00:03:35.916Z,95054.00
2023-05-17T00:04:36.004Z,95058.00
2023-05-17T00:05:35.941Z,95054.00
2023-05-17T00:06:35.928Z,95058.00
2023-05-17T00:07:35.944Z,95058.00
2023-05-17T00:08:36.001Z,95058.00
2023-05-17T00:09:35.997Z,95058.00
2023-05-17T00:10:36.075Z,95062.00
2023-05-17T00:11:36.091Z,95062.00
2023-05-17T00:12:36.251Z,95062.00
2023-05-17T00:13:36.212Z,95062.00
2023-05-17T00:14:36.260Z,95064.00
2023-05-17T00:15:36.298Z,95062.00
2023-05-17T00:16:36.360Z,95062.00
2023-05-17T00:17:36.442Z,95062.00
2023-05-17T00:18:36.591Z,95060.00
2023-05-17T00:19:36.503Z,95060.00
2023-05-17T00:20:36.631Z,95060.00
2023-05-17T00:21:36.556Z,95060.00
2023-05-17T00:22:36.625Z,95060.00
2023-05-17T00:23:36.703Z,95062.00
2023-05-17T00:24:36.715Z,95064.00
2023-05-17T00:25:36.767Z,95066.00
2023-05-17T00:26:36.819Z,95066.00
2023-05-17T00:27:36.887Z,95068.00
2023-05-17T00:28:36.932Z,95068.00
2023-05-17T00:29:37.203Z,95064.00
2023-05-17T00:30:37.091Z,95066.00
2023-05-17T00:31:37.085Z,95066.00
2023-05-17T00:32:37.324Z,95070.00
2023-05-17T00:33:37.165Z,95072.00
2023-05-17T00:34:37.288Z,95072.00
2023-05-17T00:35:37.787Z,95068.00
2023-05-17T00:36:37.543Z,95068.00
2023-05-17T00:37:37.349Z,95066.00
2023-05-17T00:38:37.416Z,95066.00
2023-05-17T00:39:37.454Z,95068.00
2023-05-17T00:40:37.467Z,95070.00
2023-05-17T00:41:37.518Z,95072.00
2023-05-17T00:42:37.612Z,95074.00
2023-05-17T00:43:37.641Z,95068.00
2023-05-17T00:44:37.655Z,95066.00
2023-05-17T00:45:37.862Z,95070.00
2023-05-17T00:46:37.771Z,95068.00
2023-05-17T00:47:38.271Z,95068.00
2023-05-17T00:48:38.041Z,95070.00
2023-05-17T00:49:37.936Z,95072.00
2023-05-17T00:50:37.957Z,95072.00
2023-05-17T00:51:38.000Z,95072.00
2023-05-17T00:52:38.079Z,95072.00
2023-05-17T00:53:38.712Z,95074.00
2023-05-17T00:54:38.175Z,95074.00
2023-05-17T00:55:38.243Z,95076.00
2023-05-17T00:56:38.290Z,95076.00
2023-05-17T00:57:38.344Z,95074.00
2023-05-17T00:58:38.394Z,95076.00
2023-05-17T00:59:38.429Z,95076.00
2023-05-17T01:00:38.503Z,95078.00
2023-05-17T01:01:38.674Z,95074.00
2023-05-17T01:02:38.661Z,95076.00
2023-05-17T01:03:38.752Z,95074.00
2023-05-17T01:04:38.745Z,95076.00
2023-05-17T01:05:38.747Z,95076.00
2023-05-17T01:06:38.786Z,95076.00
2023-05-17T01:07:38.871Z,95078.00
2023-05-17T01:08:38.904Z,95076.00
2023-05-17T01:09:38.937Z,95076.00
2023-05-17T01:10:39.025Z,95074.00
2023-05-17T01:11:39.048Z,95078.00
2023-05-17T01:12:39.145Z,95074.00
2023-05-17T01:13:39.182Z,95076.00
2023-05-17T01:14:39.268Z,95074.00
2023-05-17T01:15:39.280Z,95076.00
2023-05-17T01:16:39.332Z,95080.00
2023-05-17T01:17:39.534Z,95076.00
2023-05-17T01:18:39.574Z,95078.00
2023-05-17T01:19:39.614Z,95076.00
2023-05-17T01:20:39.601Z,95076.00
2023-05-17T01:21:39.568Z,95078.00
2023-05-17T01:22:39.680Z,95080.00
2023-05-17T01:23:39.696Z,95082.00
2023-05-17T01:24:39.767Z,95084.00
2023-05-17T01:25:39.797Z,95084.00
2023-05-17T01:26:39.886Z,95086.00
2023-05-17T01:27:39.920Z,95082.00
2023-05-17T01:28:39.963Z,95088.00
2023-05-17T01:29:40.041Z,95090.00
2023-05-17T01:30:40.075Z,95090.00
2023-05-17T01:31:40.736Z,95090.00
2023-05-17T01:32:40.247Z,95091.00
2023-05-17T01:33:40.386Z,95090.00
2023-05-17T01:34:40.272Z,95088.00
2023-05-17T01:35:40.317Z,95093.00
2023-05-17T01:36:40.355Z,95090.00
2023-05-17T01:37:40.441Z,95090.00
2023-05-17T01:38:40.484Z,95091.00
2023-05-17T01:39:40.550Z,95090.00
2023-05-17T01:40:40.600Z,95091.00
2023-05-17T01:41:40.633Z,95095.00
2023-05-17T01:42:40.698Z,95091.00
2023-05-17T01:43:40.747Z,95091.00
2023-05-17T01:44:40.790Z,95093.00
2023-05-17T01:45:40.859Z,95093.00
2023-05-17T01:46:40.962Z,95093.00
2023-05-17T01:47:41.001Z,95095.00
2023-05-17T01:48:41.022Z,95097.00
2023-05-17T01:49:41.106Z,95095.00
2023-05-17T01:50:41.057Z,95097.00
2023-05-17T01:51:41.118Z,95095.00
2023-05-17T01:52:41.164Z,95095.00
2023-05-17T01:53:41.182Z,95095.00
2023-05-17T01:54:41.234Z,95097.00
2023-05-17T01:55:41.278Z,95097.00
2023-05-17T01:56:41.325Z,95103.00
2023-05-17T01:57:41.330Z,95101.00
2023-05-17T01:58:41.389Z,95105.00
2023-05-17T01:59:41.529Z,95105.00
2023-05-17T02:00:41.483Z,95107.00
2023-05-17T02:01:41.524Z,95105.00
2023-05-17T02:02:41.629Z,95107.00
2023-05-17T02:03:41.629Z,95107.00
2023-05-17T02:04:41.809Z,95107.00
2023-05-17T02:05:41.754Z,95107.00
2023-05-17T02:06:41.735Z,95109.00
2023-05-17T02:07:41.781Z,95111.00
2023-05-17T02:08:41.819Z,95111.00
2023-05-17T02:09:41.847Z,95111.00
2023-05-17T02:10:41.845Z,95113.00
2023-05-17T02:11:41.856Z,95113.00
2023-05-17T02:12:41.924Z,95113.00
2023-05-17T02:13:41.939Z,95111.00
2023-05-17T02:14:41.973Z,95113.00
2023-05-17T02:15:41.991Z,95115.00
2023-05-17T02:16:42.008Z,95113.00
2023-05-17T02:17:42.193Z,95115.00
2023-05-17T02:18:42.116Z,95121.00
2023-05-17T02:19:42.129Z,95121.00
2023-05-17T02:20:42.135Z,95123.00
2023-05-17T02:21:42.265Z,95123.00
2023-05-17T02:22:42.173Z,95123.00
2023-05-17T02:23:42.207Z,95121.00
2023-05-17T02:24:42.200Z,95123.00
2023-05-17T02:25:42.195Z,95123.00
2023-05-17T02:26:42.252Z,95127.00
2023-05-17T02:27:42.300Z,95125.00
2023-05-17T02:28:42.242Z,95125.00
2023-05-17T02:29:42.264Z,95127.00
2023-05-17T02:30:42.279Z,95127.00
2023-05-17T02:31:42.316Z,95129.00
2023-05-17T02:32:42.386Z,95133.00
2023-05-17T02:33:42.434Z,95133.00
2023-05-17T02:34:42.328Z,95133.00
2023-05-17T02:35:42.344Z,95133.00
2023-05-17T02:36:42.333Z,95137.00
2023-05-17T02:37:42.436Z,95137.00
2023-05-17T02:38:42.374Z,95137.00
2023-05-17T02:39:42.374Z,95146.00
2023-05-17T02:40:42.401Z,95150.00
2023-05-17T02:41:42.427Z,95148.00
2023-05-17T02:42:42.444Z,95148.00
2023-05-17T02:43:42.473Z,95148.00
2023-05-17T02:44:42.474Z,95152.00
2023-05-17T02:45:42.527Z,95152.00
2023-05-17T02:46:42.502Z,95152.00
2023-05-17T02:47:42.927Z,95156.00
2023-05-17T02:48:42.485Z,95158.00
2023-05-17T02:49:42.533Z,95158.00
2023-05-17T02:50:42.528Z,95162.00
2023-05-17T02:51:42.572Z,95164.00
2023-05-17T02:52:42.562Z,95164.00
2023-05-17T02:53:42.701Z,95164.00
2023-05-17T02:54:42.624Z,95166.00
2023-05-17T02:55:42.633Z,95168.00
2023-05-17T02:56:42.631Z,95168.00
2023-05-17T02:57:42.665Z,95168.00
2023-05-17T02:58:42.647Z,95170.00
2023-05-17T02:59:42.682Z,95174.00
2023-05-17T03:00:42.657Z,95176.00
2023-05-17T03:01:42.726Z,95178.00
2023-05-17T03:02:42.761Z,95182.00
2023-05-17T03:03:42.907Z,95184.00
2023-05-17T03:04:42.801Z,95184.00
2023-05-17T03:05:42.747Z,95186.00
2023-05-17T03:06:42.772Z,95190.00
2023-05-17T03:07:42.813Z,95190.00
2023-05-17T03:08:42.824Z,95190.00
2023-05-17T03:09:42.929Z,95190.00
2023-05-17T03:10:42.821Z,95193.00
2023-05-17T03:11:42.856Z,95193.00
2023-05-17T03:12:42.871Z,95195.00
2023-05-17T03:13:42.904Z,95197.00
2023-05-17T03:14:42.955Z,95201.00
2023-05-17T03:15:42.978Z,95201.00
2023-05-17T03:16:42.982Z,95203.00
2023-05-17T03:17:43.104Z,95203.00
2023-05-17T03:18:43.144Z,95205.00
2023-05-17T03:19:43.146Z,95205.00
2023-05-17T03:20:43.099Z,95211.00
2023-05-17T03:21:43.127Z,95209.00
2023-05-17T03:22:43.174Z,95211.00
2023-05-17T03:23:43.151Z,95213.00
2023-05-17T03:24:43.191Z,95217.00
2023-05-17T03:25:43.322Z,95217.00
2023-05-17T03:26:43.241Z,95215.00
2023-05-17T03:27:43.321Z,95219.00
2023-05-17T03:28:43.328Z,95215.00
2023-05-17T03:29:43.327Z,95219.00
2023-05-17T03:30:43.392Z,95219.00
2023-05-17T03:31:43.400Z,95221.00
2023-05-17T03:32:43.864Z,95223.00
2023-05-17T03:33:43.609Z,95223.00
2023-05-17T03:34:43.421Z,95225.00
2023-05-17T03:35:43.512Z,95225.00
2023-05-17T03:36:43.506Z,95225.00
2023-05-17T03:37:43.759Z,95227.00
2023-05-17T03:38:43.553Z,95231.00
2023-05-17T03:39:43.572Z,95233.00
2023-05-17T03:40:43.598Z,95237.00
2023-05-17T03:41:43.746Z,95237.00
2023-05-17T03:42:43.667Z,95240.00
2023-05-17T03:43:43.676Z,95242.00
2023-05-17T03:44:43.732Z,95242.00
2023-05-17T03:45:43.754Z,95242.00
2023-05-17T03:46:43.774Z,95240.00
2023-05-17T03:47:43.853Z,95244.00
2023-05-17T03:48:43.863Z,95244.00
2023-05-17T03:49:43.872Z,95248.00
2023-05-17T03:50:43.886Z,95244.00
2023-05-17T03:51:43.888Z,95250.00
2023-05-17T03:52:44.303Z,95252.00
2023-05-17T03:53:43.955Z,95252.00
2023-05-17T03:54:44.598Z,95246.00
2023-05-17T03:55:43.982Z,95250.00
2023-05-17T03:56:44.035Z,95254.00
2023-05-17T03:57:44.140Z,95254.00
2023-05-17T03:58:44.106Z,95252.00
2023-05-17T03:59:44.143Z,95254.00
2023-05-17T04:00:44.175Z,95252.00
2023-05-17T04:01:44.216Z,95256.00
2023-05-17T04:02:44.310Z,95254.00
2023-05-17T04:03:44.327Z,95256.00
2023-05-17T04:04:44.312Z,95260.00
2023-05-17T04:05:44.350Z,95260.00
2023-05-17T04:06:44.381Z,95260.00
2023-05-17T04:07:44.393Z,95260.00
2023-05-17T04:08:44.425Z,95262.00
2023-05-17T04:09:44.458Z,95268.00
2023-05-17T04:10:44.525Z,95266.00
2023-05-17T04:11:44.540Z,95268.00
2023-05-17T04:12:44.584Z,95270.00
2023-05-17T04:13:44.670Z,95268.00
2023-05-17T04:14:44.673Z,95270.00
2023-05-17T04:15:44.715Z,95268.00
2023-05-17T04:16:44.708Z,95268.00
2023-05-17T04:17:44.859Z,95268.00
2023-05-17T04:18:44.785Z,95268.00
2023-05-17T04:19:44.843Z,95268.00
2023-05-17T04:20:44.835Z,95270.00
2023-05-17T04:21:44.856Z,95268.00
2023-05-17T04:22:44.888Z,95268.00
2023-05-17T04:23:44.898Z,95270.00
2023-05-17T04:24:44.968Z,95272.00
2023-05-17T04:25:44.974Z,95274.00
2023-05-17T04:26:44.972Z,95274.00
2023-05-17T04:27:45.030Z,95274.00
2023-05-17T04:28:45.071Z,95276.00
2023-05-17T04:29:45.169Z,95278.00
2023-05-17T04:30:45.099Z,95278.00
2023-05-17T04:31:45.153Z,95278.00
2023-05-17T04:32:45.251Z,95280.00
2023-05-17T04:33:45.280Z,95278.00
2023-05-17T04:34:45.267Z,95282.00
2023-05-17T04:35:45.284Z,95286.00
2023-05-17T04:36:45.313Z,95288.00
2023-05-17T04:37:45.374Z,95288.00
2023-05-17T04:38:45.476Z,95290.00
2023-05-17T04:39:45.443Z,95293.00
2023-05-17T04:40:45.451Z,95295.00
2023-05-17T04:41:45.498Z,95295.00
2023-05-17T04:42:45.586Z,95297.00
2023-05-17T04:43:45.570Z,95297.00
2023-05-17T04:44:45.615Z,95299.00
2023-05-17T04:45:45.664Z,95297.00
2023-05-17T04:46:45.695Z,95299.00
2023-05-17T04:47:45.920Z,95299.00
2023-05-17T04:48:45.891Z,95299.00
2023-05-17T04:49:45.814Z,95297.00
2023-05-17T04:50:45.868Z,95303.00
2023-05-17T04:51:45.906Z,95299.00
2023-05-17T04:52:45.985Z,95299.00
2023-05-17T04:53:45.992Z,95297.00
2023-05-17T04:54:46.050Z,95297.00
2023-05-17T04:55:46.067Z,95301.00
2023-05-17T04:56:46.128Z,95301.00
2023-05-17T04:57:46.184Z,95303.00
2023-05-17T04:58:46.252Z,95301.00
2023-05-17T04:59:46.263Z,95303.00
2023-05-17T05:00:46.293Z,95305.00
2023-05-17T05:01:46.516Z,95305.00
2023-05-17T05:02:46.502Z,95307.00
2023-05-17T05:03:46.486Z,95309.00
2023-05-17T05:04:46.485Z,95307.00
2023-05-17T05:05:46.485Z,95311.00
2023-05-17T05:06:46.487Z,95313.00
2023-05-17T05:07:46.599Z,95319.00
2023-05-17T05:08:46.619Z,95321.00
2023-05-17T05:09:46.616Z,95321.00
2023-05-17T05:10:46.691Z,95323.00
2023-05-17T05:11:46.722Z,95327.00
2023-05-17T05:12:46.759Z,95329.00
2023-05-17T05:13:46.809Z,95325.00
2023-05-17T05:14:46.867Z,95323.00
2023-05-17T05:15:46.915Z,95325.00
2023-05-17T05:16:46.987Z,95327.00
2023-05-17T05:17:47.207Z,95327.00
2023-05-17T05:18:47.207Z,95325.00
2023-05-17T05:19:47.114Z,95333.00
2023-05-17T05:20:47.132Z,95331.00
2023-05-17T05:21:47.171Z,95335.00
2023-05-17T05:22:47.295Z,95335.00
2023-05-17T05:23:47.278Z,95335.00
2023-05-17T05:24:47.323Z,95337.00
2023-05-17T05:25:47.375Z,95339.00
2023-05-17T05:26:47.411Z,95340.00
2023-05-17T05:27:47.467Z,95339.00
2023-05-17T05:28:47.504Z,95339.00
2023-05-17T05:29:47.544Z,95340.00
2023-05-17T05:30:47.598Z,95339.00
2023-05-17T05:31:47.664Z,95340.00
2023-05-17T05:32:47.760Z,95339.00
2023-05-17T05:33:48.057Z,95340.00
2023-05-17T05:34:47.784Z,95346.00
2023-05-17T05:35:47.827Z,95342.00
2023-05-17T05:36:47.884Z,95342.00
2023-05-17T05:37:47.968Z,95340.00
2023-05-17T05:38:47.968Z,95340.00
2023-05-17T05:39:48.031Z,95342.00
2023-05-17T05:40:48.067Z,95342.00
2023-05-17T05:41:48.147Z,95342.00
2023-05-17T05:42:48.187Z,95344.00
2023-05-17T05:43:48.204Z,95344.00
2023-05-17T05:44:48.278Z,95344.00
2023-05-17T05:45:48.316Z,95350.00
2023-05-17T05:46:48.306Z,95348.00
2023-05-17T05:47:48.518Z,95352.00
2023-05-17T05:48:48.501Z,95348.00
2023-05-17T05:49:48.566Z,95350.00
2023-05-17T05:50:48.572Z,95350.00
2023-05-17T05:51:48.613Z,95352.00
2023-05-17T05:52:48.650Z,95346.00
2023-05-17T05:53:48.684Z,95350.00
2023-05-17T05:54:48.721Z,95352.00
2023-05-17T05:55:48.751Z,95352.00
2023-05-17T05:56:48.784Z,95352.00
2023-05-17T05:57:48.847Z,95356.00
2023-05-17T05:58:48.885Z,95356.00
2023-05-17T05:59:48.893Z,95358.00
2023-05-17T06:00:48.942Z,95356.00
2023-05-17T06:01:48.991Z,95356.00
2023-05-17T06:02:49.094Z,95356.00
2023-05-17T06:03:49.107Z,95358.00
2023-05-17T06:04:49.162Z,95358.00
2023-05-17T06:05:49.328Z,95364.00
2023-05-17T06:06:49.396Z,95360.00
2023-05-17T06:07:49.299Z,95362.00
2023-05-17T06:08:49.367Z,95362.00
2023-05-17T06:09:49.398Z,95364.00
2023-05-17T06:10:49.497Z,95364.00
2023-05-17T06:11:49.537Z,95364.00
2023-05-17T06:12:49.789Z,95364.00
2023-05-17T06:13:49.602Z,95366.00
2023-05-17T06:14:49.643Z,95366.00
2023-05-17T06:15:49.701Z,95364.00
2023-05-17T06:16:49.945Z,95368.00
2023-05-17T06:17:50.171Z,95366.00
2023-05-17T06:18:51.400Z,95364.00
2023-05-17T06:19:49.853Z,95368.00
2023-05-17T06:20:49.857Z,95366.00
2023-05-17T06:21:49.972Z,95366.00
2023-05-17T06:22:49.967Z,95368.00
2023-05-17T06:23:49.990Z,95372.00
2023-05-17T06:24:50.029Z,95368.00
2023-05-17T06:25:50.055Z,95372.00
2023-05-17T06:26:50.100Z,95374.00
2023-05-17T06:27:50.127Z,95374.00
2023-05-17T06:28:50.166Z,95370.00
2023-05-17T06:29:50.262Z,95374.00
2023-05-17T06:30:50.273Z,95374.00
2023-05-17T06:31:50.358Z,95376.00
2023-05-17T06:32:50.491Z,95376.00
2023-05-17T06:33:50.472Z,95374.00
2023-05-17T06:34:50.480Z,95378.00
2023-05-17T06:35:57.000Z,95380.00
2023-05-17T06:36:51.537Z,95380.00
2023-05-17T06:37:50.587Z,95384.00
2023-05-17T06:38:50.531Z,95384.00
2023-05-17T06:39:55.905Z,95386.00
2023-05-17T06:40:51.488Z,95384.00
2023-05-17T06:41:50.487Z,95386.00
2023-05-17T06:42:50.502Z,95387.00
2023-05-17T06:43:50.494Z,95391.00
2023-05-17T06:44:50.487Z,95391.00
2023-05-17T06:45:50.463Z,95389.00
2023-05-17T06:46:50.451Z,95391.00
2023-05-17T06:47:50.569Z,95391.00
2023-05-17T06:48:51.356Z,95393.00
2023-05-17T06:49:50.445Z,95387.00
2023-05-17T06:50:50.436Z,95401.00
2023-05-17T06:51:50.444Z,95391.00
2023-05-17T06:52:50.446Z,95391.00
2023-05-17T06:53:50.724Z,95401.00
2023-05-17T06:54:50.505Z,95393.00
2023-05-17T06:55:50.589Z,95393.00
2023-05-17T06:56:50.583Z,95393.00
2023-05-17T06:57:50.614Z,95405.00
2023-05-17T06:58:50.636Z,95407.00
2023-05-17T06:59:50.620Z,95405.00
2023-05-17T07:00:50.634Z,95405.00
2023-05-17T07:01:50.635Z,95407.00
2023-05-17T07:02:50.744Z,95409.00
2023-05-17T07:03:50.780Z,95409.00
2023-05-17T07:04:50.843Z,95413.00
2023-05-17T07:05:50.852Z,95413.00
2023-05-17T07:06:50.874Z,95413.00
2023-05-17T07:07:51.339Z,95411.00
2023-05-17T07:08:50.913Z,95413.00
2023-05-17T07:09:51.085Z,95413.00
2023-05-17T07:10:50.911Z,95415.00
2023-05-17T07:11:50.912Z,95415.00
2023-05-17T07:12:50.967Z,95417.00
2023-05-17T07:13:52.832Z,95415.00
2023-05-17T07:14:57.934Z,95419.00
2023-05-17T07:15:50.953Z,95421.00
2023-05-17T07:16:50.929Z,95417.00
2023-05-17T07:17:51.215Z,95419.00
2023-05-17T07:18:50.993Z,95421.00
2023-05-17T07:19:51.079Z,95423.00
2023-05-17T07:20:50.909Z,95425.00
2023-05-17T07:21:50.902Z,95429.00
2023-05-17T07:22:50.921Z,95421.00
2023-05-17T07:23:50.888Z,95423.00
2023-05-17T07:24:50.893Z,95423.00
2023-05-17T07:25:51.035Z,95423.00
2023-05-17T07:26:52.363Z,95421.00
2023-05-17T07:27:51.355Z,95421.00
2023-05-17T07:28:50.862Z,95423.00
2023-05-17T07:29:50.886Z,95427.00
2023-05-17T07:30:50.852Z,95425.00
2023-05-17T07:31:50.851Z,95427.00
2023-05-17T07:32:50.866Z,95429.00
2023-05-17T07:33:50.878Z,95429.00
2023-05-17T07:34:50.814Z,95427.00
2023-05-17T07:35:50.874Z,95427.00
2023-05-17T07:36:50.788Z,95433.00
2023-05-17T07:37:50.793Z,95433.00
2023-05-17T07:38:50.790Z,95435.00
2023-05-17T07:39:50.779Z,95433.00
2023-05-17T07:40:50.749Z,95433.00
2023-05-17T07:41:50.767Z,95437.00
2023-05-17T07:42:50.912Z,95437.00
2023-05-17T07:43:50.757Z,95439.00
2023-05-17T07:44:57.825Z,95435.00
2023-05-17T07:45:50.756Z,95437.00
2023-05-17T07:46:50.775Z,95435.00
2023-05-17T07:47:50.956Z,95433.00
2023-05-17T07:48:50.794Z,95429.00
2023-05-17T07:49:50.717Z,95433.00
2023-05-17T07:50:50.678Z,95433.00
2023-05-17T07:51:50.691Z,95433.00
2023-05-17T07:52:50.702Z,95431.00
2023-05-17T07:53:50.695Z,95437.00
2023-05-17T07:54:50.686Z,95435.00
2023-05-17T07:55:50.680Z,95433.00
2023-05-17T07:56:50.643Z,95437.00
2023-05-17T07:57:50.677Z,95421.00
2023-05-17T07:58:50.655Z,95433.00
2023-05-17T07:59:51.381Z,95435.00
2023-05-17T08:00:50.655Z,95431.00
2023-05-17T08:01:50.673Z,95435.00
2023-05-17T08:02:51.352Z,95431.00
2023-05-17T08:03:50.638Z,95433.00
2023-05-17T08:04:50.736Z,95431.00
2023-05-17T08:05:50.690Z,95431.00
2023-05-17T08:06:50.633Z,95437.00
2023-05-17T08:07:50.596Z,95431.00
2023-05-17T08:08:50.604Z,95429.00
2023-05-17T08:09:50.578Z,95433.00
2023-05-17T08:10:50.575Z,95435.00
2023-05-17T08:11:50.579Z,95433.00
2023-05-17T08:12:50.572Z,95435.00
2023-05-17T08:13:50.544Z,95437.00
2023-05-17T08:14:50.547Z,95437.00
2023-05-17T08:15:53.610Z,95440.00
2023-05-17T08:16:51.554Z,95442.00
2023-05-17T08:17:50.559Z,95440.00
2023-05-17T08:18:50.606Z,95446.00
2023-05-17T08:19:50.566Z,95448.00
2023-05-17T08:20:50.515Z,95444.00
2023-05-17T08:21:50.533Z,95446.00
2023-05-17T08:22:50.542Z,95450.00
2023-05-17T08:23:50.489Z,95444.00
2023-05-17T08:24:50.461Z,95448.00
2023-05-17T08:25:50.502Z,95450.00
2023-05-17T08:26:50.475Z,95454.00
2023-05-17T08:27:50.494Z,95454.00
2023-05-17T08:28:50.471Z,95452.00
2023-05-17T08:29:50.573Z,95456.00
2023-05-17T08:30:50.529Z,95460.00
2023-05-17T08:31:50.568Z,95458.00
2023-05-17T08:32:50.648Z,95466.00
2023-05-17T08:33:50.621Z,95462.00
2023-05-17T08:34:50.610Z,95464.00
2023-05-17T08:35:50.676Z,95468.00
2023-05-17T08:36:50.706Z,95470.00
2023-05-17T08:37:50.689Z,95474.00
2023-05-17T08:38:50.734Z,95474.00
2023-05-17T08:39:50.782Z,95478.00
2023-05-17T08:40:50.831Z,95478.00
2023-05-17T08:41:50.839Z,95482.00
2023-05-17T08:42:50.833Z,95484.00
2023-05-17T08:43:50.949Z,95489.00
2023-05-17T08:44:50.919Z,95486.00
2023-05-17T08:45:51.039Z,95487.00
2023-05-17T08:46:50.975Z,95489.00
2023-05-17T08:47:51.010Z,95487.00
2023-05-17T08:48:51.093Z,95487.00
2023-05-17T08:49:51.007Z,95491.00
2023-05-17T08:50:51.068Z,95497.00
2023-05-17T08:51:51.078Z,95495.00
2023-05-17T08:52:51.184Z,95497.00
2023-05-17T08:53:51.130Z,95497.00
2023-05-17T08:54:51.168Z,95499.00
2023-05-17T08:55:51.255Z,95499.00
2023-05-17T08:56:51.250Z,95499.00
2023-05-17T08:57:51.311Z,95499.00
2023-05-17T08:58:56.985Z,95493.00
2023-05-17T08:59:52.338Z,95495.00
2023-05-17T09:00:51.371Z,95501.00
2023-05-17T09:01:51.332Z,95501.00
2023-05-17T09:02:51.432Z,95507.00
2023-05-17T09:03:51.349Z,95509.00
2023-05-17T09:04:51.445Z,95501.00
2023-05-17T09:05:51.350Z,95505.00
2023-05-17T09:06:51.313Z,95507.00
2023-05-17T09:07:51.304Z,95509.00
2023-05-17T09:08:51.300Z,95509.00
2023-05-17T09:09:51.317Z,95511.00
2023-05-17T09:10:51.360Z,95511.00
2023-05-17T09:11:51.388Z,95511.00
2023-05-17T09:12:51.410Z,95513.00
2023-05-17T09:13:52.382Z,95513.00
2023-05-17T09:14:51.419Z,95515.00
2023-05-17T09:15:51.477Z,95519.00
2023-05-17T09:16:51.490Z,95523.00
2023-05-17T09:17:51.620Z,95523.00
2023-05-17T09:18:51.669Z,95523.00
2023-05-17T09:19:51.588Z,95525.00
2023-05-17T09:20:51.579Z,95525.00
2023-05-17T09:21:51.612Z,95523.00
2023-05-17T09:22:51.880Z,95527.00
2023-05-17T09:24:04.884Z,95527.00
2023-05-17T09:24:52.702Z,95527.00
2023-05-17T09:25:51.667Z,95527.00
2023-05-17T09:26:51.731Z,95529.00
2023-05-17T09:27:51.644Z,95531.00
2023-05-17T09:28:51.904Z,95531.00
2023-05-17T09:29:51.627Z,95535.00
2023-05-17T09:30:52.400Z,95535.00
2023-05-17T09:31:51.613Z,95535.00
2023-05-17T09:32:51.629Z,95537.00
2023-05-17T09:33:51.817Z,95535.00
2023-05-17T09:34:51.598Z,95535.00
2023-05-17T09:35:51.599Z,95533.00
2023-05-17T09:36:51.586Z,95537.00
2023-05-17T09:37:51.603Z,95537.00
2023-05-17T09:38:51.595Z,95537.00
2023-05-17T09:39:51.664Z,95537.00
2023-05-17T09:40:51.657Z,95538.00
2023-05-17T09:41:51.746Z,95540.00
2023-05-17T09:42:51.769Z,95542.00
2023-05-17T09:43:51.787Z,95538.00
2023-05-17T09:44:51.793Z,95542.00
2023-05-17T09:45:51.862Z,95546.00
2023-05-17T09:46:51.829Z,95548.00
2023-05-17T09:47:51.937Z,95546.00
2023-05-17T09:48:52.043Z,95544.00
2023-05-17T09:49:51.927Z,95544.00
2023-05-17T09:50:51.946Z,95546.00
2023-05-17T09:51:51.973Z,95546.00
2023-05-17T09:52:52.026Z,95544.00
2023-05-17T09:53:52.392Z,95542.00
2023-05-17T09:54:52.053Z,95542.00
2023-05-17T09:55:52.092Z,95544.00
2023-05-17T09:56:52.098Z,95544.00
2023-05-17T09:57:52.139Z,95546.00
2023-05-17T09:58:52.415Z,95542.00
2023-05-17T09:59:52.166Z,95542.00
2023-05-17T10:00:52.205Z,95544.00
2023-05-17T10:01:52.217Z,95544.00
2023-05-17T10:02:52.309Z,95542.00
2023-05-17T10:03:52.321Z,95544.00
2023-05-17T10:04:52.359Z,95542.00
2023-05-17T10:05:52.330Z,95538.00
2023-05-17T10:06:52.685Z,95538.00
2023-05-17T10:07:52.352Z,95544.00
2023-05-17T10:08:52.418Z,95546.00
2023-05-17T10:09:52.437Z,95544.00
2023-05-17T10:10:52.469Z,95542.00
2023-05-17T10:11:52.481Z,95544.00
2023-05-17T10:12:52.548Z,95544.00
2023-05-17T10:13:52.575Z,95544.00
2023-05-17T10:14:52.640Z,95544.00
2023-05-17T10:15:52.670Z,95542.00
2023-05-17T10:16:52.694Z,95542.00
2023-05-17T10:17:52.793Z,95538.00
2023-05-17T10:18:53.030Z,95540.00
2023-05-17T10:19:53.088Z,95542.00
2023-05-17T10:20:52.851Z,95544.00
2023-05-17T10:21:52.919Z,95542.00
2023-05-17T10:22:52.951Z,95546.00
2023-05-17T10:23:52.982Z,95544.00
2023-05-17T10:24:53.057Z,95544.00
2023-05-17T10:25:53.093Z,95544.00
2023-05-17T10:27:26.758Z,95544.00
2023-05-17T10:28:26.727Z,95542.00
2023-05-17T10:29:26.734Z,95542.00
2023-05-17T10:30:26.681Z,95540.00
2023-05-17T10:31:26.724Z,95540.00
2023-05-17T10:32:26.847Z,95540.00
2023-05-17T10:33:26.804Z,95540.00
2023-05-17T10:34:26.697Z,95542.00
2023-05-17T10:35:26.704Z,95546.00
2023-05-17T10:36:26.653Z,95546.00
2023-05-17T10:37:26.658Z,95548.00
2023-05-17T10:38:38.615Z,95546.00
2023-05-17T10:39:27.704Z,95542.00
2023-05-17T10:40:26.637Z,95548.00
2023-05-17T10:41:26.641Z,95544.00
2023-05-17T10:42:26.611Z,95542.00
2023-05-17T10:43:26.907Z,95546.00
2023-05-17T10:44:26.668Z,95546.00
2023-05-17T10:45:26.764Z,95544.00
2023-05-17T10:46:26.637Z,95544.00
2023-05-17T10:47:26.640Z,95542.00
2023-05-17T10:48:26.685Z,95542.00
2023-05-17T10:49:26.723Z,95538.00
2023-05-17T10:50:26.663Z,95540.00
2023-05-17T10:51:26.625Z,95540.00
2023-05-17T10:52:26.675Z,95538.00
2023-05-17T10:53:26.780Z,95538.00
2023-05-17T10:54:26.783Z,95540.00
2023-05-17T10:55:26.933Z,95540.00
2023-05-17T10:56:26.864Z,95538.00
2023-05-17T10:57:27.729Z,95538.00
2023-05-17T10:58:26.965Z,95542.00
2023-05-17T10:59:27.093Z,95540.00
2023-05-17T11:00:27.204Z,95538.00
2023-05-17T11:01:27.050Z,95540.00
2023-05-17T11:02:27.129Z,95540.00
2023-05-17T11:03:27.173Z,95542.00
2023-05-17T11:04:27.239Z,95542.00
2023-05-17T11:05:27.768Z,95544.00
2023-05-17T11:06:27.362Z,95542.00
2023-05-17T11:07:27.436Z,95538.00
2023-05-17T11:08:27.437Z,95538.00
2023-05-17T11:09:27.445Z,95537.00
2023-05-17T11:10:27.618Z,95537.00
2023-05-17T11:11:27.564Z,95535.00
2023-05-17T11:12:27.575Z,95537.00
2023-05-17T11:13:27.620Z,95537.00
2023-05-17T11:14:27.843Z,95538.00
2023-05-17T11:15:28.045Z,95538.00
2023-05-17T11:16:27.744Z,95537.00
2023-05-17T11:17:27.828Z,95537.00
2023-05-17T11:18:31.196Z,95537.00
2023-05-17T11:19:27.925Z,95538.00
2023-05-17T11:20:28.318Z,95537.00
2023-05-17T11:21:27.840Z,95538.00
2023-05-17T11:22:27.845Z,95538.00
2023-05-17T11:23:27.848Z,95535.00
2023-05-17T11:24:27.819Z,95538.00
2023-05-17T11:25:27.853Z,95538.00
2023-05-17T11:26:27.797Z,95537.00
2023-05-17T11:27:27.800Z,95537.00
2023-05-17T11:28:27.770Z,95537.00
2023-05-17T11:29:27.793Z,95538.00
2023-05-17T11:30:27.995Z,95537.00
2023-05-17T11:31:27.762Z,95542.00
2023-05-17T11:32:27.778Z,95538.00
2023-05-17T11:33:33.599Z,95540.00
2023-05-17T11:34:28.854Z,95537.00
2023-05-17T11:35:27.721Z,95538.00
2023-05-17T11:36:27.733Z,95542.00
2023-05-17T11:37:27.745Z,95540.00
2023-05-17T11:38:27.723Z,95540.00
2023-05-17T11:39:27.717Z,95537.00
2023-05-17T11:40:27.923Z,95537.00
2023-05-17T11:41:27.726Z,95533.00
2023-05-17T11:42:27.717Z,95537.00
2023-05-17T11:43:27.743Z,95533.00
2023-05-17T11:44:27.757Z,95535.00
2023-05-17T11:45:28.186Z,95537.00